Time;durP1;ratioP1;P1;durP2;ratioP2;P2;SDS_P1;SDS_P2;PMS_P1;PMS_P2;Temp;Humidity;BMP_temperature;BMP_pressure;BME280_temperature;BME280_humidity;BME280_pressure;Samples;Min_cycle;Max_cycle;Signal;HPM_P1;HPM_P2
2024/02/16 00:02:03;;;;;;;9.63;8.73;;;11.10;1.00;;;;;;5077048;28;20463;-74
2024/02/16 00:04:30;;;;;;;10.80;9.80;;;11.00;1.00;;;;;;5084221;28;21326;-76
2024/02/16 00:06:59;;;;;;;10.30;9.30;;;11.00;1.00;;;;;;5089739;28;20564;-74
2024/02/16 00:09:27;;;;;;;9.80;8.90;;;11.00;1.00;;;;;;5085601;28;21279;-74
2024/02/16 00:11:54;;;;;;;10.87;8.60;;;10.90;1.00;;;;;;5099870;27;20477;-75
2024/02/16 00:14:21;;;;;;;10.53;9.50;;;10.90;1.00;;;;;;5107302;27;20470;-74
2024/02/16 00:16:48;;;;;;;10.77;9.70;;;10.90;1.00;;;;;;5106070;27;20450;-75
2024/02/16 00:19:18;;;;;;;11.13;9.97;;;10.90;1.00;;;;;;5107615;27;20485;-75
2024/02/16 00:21:45;;;;;;;11.13;9.93;;;10.90;1.00;;;;;;5109626;27;20462;-76
2024/02/16 00:24:14;;;;;;;12.20;10.90;;;10.90;1.00;;;;;;5109066;27;20892;-76
2024/02/16 00:26:43;;;;;;;12.20;10.63;;;10.80;1.00;;;;;;5109101;27;20458;-76
2024/02/16 00:29:10;;;;;;;13.03;11.73;;;10.80;1.00;;;;;;5108717;27;20545;-78
2024/02/16 00:31:35;;;;;;;13.70;12.20;;;10.80;1.00;;;;;;5103767;27;21037;-74
2024/02/16 00:34:02;;;;;;;13.70;12.40;;;10.80;1.00;;;;;;5109510;27;20533;-75
2024/02/16 00:36:30;;;;;;;14.50;13.00;;;10.70;1.00;;;;;;5110759;27;20546;-76
2024/02/16 00:38:57;;;;;;;13.17;11.87;;;10.70;1.00;;;;;;5111363;27;20961;-76
2024/02/16 00:41:26;;;;;;;16.70;13.67;;;10.70;1.00;;;;;;5107047;27;20562;-78
2024/02/16 00:43:53;;;;;;;15.27;13.33;;;10.70;1.00;;;;;;5110405;27;20902;-77
2024/02/16 00:46:22;;;;;;;15.30;13.77;;;10.60;1.00;;;;;;5106535;27;20834;-76
2024/02/16 00:48:50;;;;;;;15.70;14.20;;;10.60;1.00;;;;;;5107393;27;20461;-74
2024/02/16 00:51:20;;;;;;;16.00;13.77;;;10.60;1.00;;;;;;5106784;27;20489;-75
2024/02/16 00:53:47;;;;;;;15.77;13.80;;;10.60;1.00;;;;;;5107308;27;20978;-75
2024/02/16 00:56:14;;;;;;;15.50;13.90;;;10.70;1.00;;;;;;5107629;27;20455;-75
2024/02/16 00:58:43;;;;;;;16.13;14.47;;;10.60;1.00;;;;;;5107322;27;20462;-76
2024/02/16 01:01:12;;;;;;;15.03;13.40;;;10.60;1.00;;;;;;5109979;27;20547;-76
2024/02/16 01:03:39;;;;;;;17.03;15.23;;;10.70;1.00;;;;;;5108042;27;20489;-75
2024/02/16 01:06:08;;;;;;;17.43;15.47;;;10.70;1.00;;;;;;5107782;27;20461;-76
2024/02/16 01:08:35;;;;;;;17.37;15.77;;;10.70;1.00;;;;;;5088126;28;20491;-76
2024/02/16 01:11:02;;;;;;;18.23;16.47;;;10.70;1.00;;;;;;5107909;27;20562;-75
2024/02/16 01:13:29;;;;;;;17.30;15.70;;;10.80;1.00;;;;;;5105425;27;20462;-75
2024/02/16 01:15:58;;;;;;;17.03;15.30;;;10.80;1.00;;;;;;5107871;27;20454;-75
2024/02/16 01:18:25;;;;;;;17.07;15.23;;;10.80;1.00;;;;;;5105172;27;20509;-75
2024/02/16 01:20:53;;;;;;;17.10;15.40;;;10.90;1.00;;;;;;5109211;27;20485;-73
2024/02/16 01:23:20;;;;;;;17.23;14.73;;;10.80;1.00;;;;;;5107820;27;20551;-74
2024/02/16 01:25:48;;;;;;;16.50;14.80;;;10.90;1.00;;;;;;5105958;27;21193;-76
2024/02/16 01:28:16;;;;;;;17.43;15.60;;;10.80;1.00;;;;;;5106893;27;20515;-76
2024/02/16 01:30:43;;;;;;;19.13;17.13;;;10.90;1.00;;;;;;5091286;27;20442;-76
2024/02/16 01:33:11;;;;;;;22.50;17.03;;;10.80;1.00;;;;;;5106484;27;20515;-74
2024/02/16 01:35:39;;;;;;;19.00;16.20;;;10.80;1.00;;;;;;5107653;27;20547;-76
2024/02/16 01:38:06;;;;;;;16.13;14.43;;;10.80;1.00;;;;;;5105808;27;20466;-76
2024/02/16 01:40:33;;;;;;;16.73;15.20;;;10.80;1.00;;;;;;5108483;27;21058;-75
2024/02/16 01:43:00;;;;;;;17.20;15.40;;;10.80;1.00;;;;;;5105841;27;20478;-75
2024/02/16 01:45:27;;;;;;;17.90;16.10;;;10.80;1.00;;;;;;5109232;27;20535;-75
2024/02/16 01:47:55;;;;;;;18.33;16.43;;;10.70;1.00;;;;;;5107157;27;20462;-75
2024/02/16 01:50:24;;;;;;;17.67;15.87;;;10.70;1.00;;;;;;5105035;27;20595;-76
2024/02/16 01:52:51;;;;;;;17.37;15.73;;;10.70;1.00;;;;;;5105977;27;20455;-75
2024/02/16 01:55:18;;;;;;;19.00;16.67;;;10.60;1.00;;;;;;5109054;27;22054;-76
2024/02/16 01:57:47;;;;;;;18.10;16.13;;;10.50;1.00;;;;;;5109762;27;20438;-75
2024/02/16 02:00:17;;;;;;;17.60;15.67;;;10.50;1.00;;;;;;5104503;27;20538;-75
2024/02/16 02:02:46;;;;;;;17.50;15.70;;;10.40;1.00;;;;;;5104885;27;20520;-74
2024/02/16 02:05:14;;;;;;;18.73;16.83;;;10.30;1.00;;;;;;5105744;27;20526;-74
2024/02/16 02:07:43;;;;;;;18.60;16.47;;;10.20;1.00;;;;;;5106077;27;20449;-74
2024/02/16 02:10:12;;;;;;;20.53;16.80;;;10.20;1.00;;;;;;5104967;27;21800;-74
2024/02/16 02:12:39;;;;;;;19.33;17.47;;;10.10;1.00;;;;;;5106677;27;20454;-76
2024/02/16 02:15:07;;;;;;;19.80;17.90;;;10.10;1.00;;;;;;5106792;27;20916;-76
2024/02/16 02:17:34;;;;;;;19.00;17.07;;;10.00;1.00;;;;;;5102766;27;20976;-74
2024/02/16 02:20:01;;;;;;;20.83;18.47;;;10.00;1.00;;;;;;5105769;27;20851;-76
2024/02/16 02:22:29;;;;;;;20.83;18.73;;;9.90;1.00;;;;;;5101452;27;20464;-74
2024/02/16 02:24:57;;;;;;;20.97;18.70;;;10.00;1.00;;;;;;5105838;27;20501;-75
2024/02/16 02:27:24;;;;;;;19.57;17.57;;;10.00;1.00;;;;;;5107545;27;20459;-76
2024/02/16 02:29:51;;;;;;;21.37;19.13;;;9.90;1.00;;;;;;5106386;27;20561;-76
2024/02/16 02:32:18;;;;;;;20.13;18.13;;;9.90;1.00;;;;;;5103142;27;20453;-75
2024/02/16 02:34:45;;;;;;;21.50;19.40;;;9.90;1.00;;;;;;5106461;27;20986;-74
2024/02/16 02:37:12;;;;;;;21.40;19.13;;;9.90;1.00;;;;;;5102363;27;20517;-75
2024/02/16 02:39:41;;;;;;;19.53;17.20;;;9.80;1.00;;;;;;5107099;27;20465;-74
2024/02/16 02:42:09;;;;;;;22.47;20.00;;;9.80;1.00;;;;;;5105932;27;20458;-75
2024/02/16 02:44:36;;;;;;;22.80;20.13;;;9.70;1.00;;;;;;5100874;27;20461;-75
2024/02/16 02:47:03;;;;;;;21.17;18.97;;;9.70;1.00;;;;;;5102677;27;20450;-75
2024/02/16 02:49:30;;;;;;;19.37;17.37;;;9.60;1.00;;;;;;5105352;27;21059;-76
2024/02/16 02:51:58;;;;;;;21.70;19.57;;;9.60;1.00;;;;;;5105367;27;20453;-75
2024/02/16 02:54:24;;;;;;;24.80;20.93;;;9.70;1.00;;;;;;5109368;27;20454;-74
2024/02/16 02:56:53;;;;;;;22.20;19.50;;;9.70;1.00;;;;;;5101178;27;20549;-74
2024/02/16 02:59:20;;;;;;;20.10;18.10;;;9.70;1.00;;;;;;5107277;27;21040;-74
2024/02/16 03:01:46;;;;;;;20.00;17.90;;;9.80;1.00;;;;;;5103804;27;20561;-74
2024/02/16 03:04:13;;;;;;;20.37;18.23;;;9.70;1.00;;;;;;5102160;27;20539;-74
2024/02/16 03:06:41;;;;;;;21.93;19.57;;;9.80;1.00;;;;;;5106265;27;21133;-74
2024/02/16 03:09:08;;;;;;;20.93;18.70;;;9.80;1.00;;;;;;5108951;27;21611;-73
2024/02/16 03:11:35;;;;;;;20.07;18.07;;;9.80;1.00;;;;;;5102119;27;20462;-74
2024/02/16 03:14:05;;;;;;;21.57;19.03;;;9.70;1.00;;;;;;5102394;27;20474;-76
2024/02/16 03:16:32;;;;;;;22.83;18.67;;;9.80;1.00;;;;;;5107957;27;20457;-74
2024/02/16 03:18:59;;;;;;;19.77;17.70;;;9.80;1.00;;;;;;5098030;27;21373;-75
2024/02/16 03:21:27;;;;;;;20.37;18.37;;;9.90;1.00;;;;;;5108370;27;20440;-78
2024/02/16 03:23:53;;;;;;;19.80;17.90;;;9.90;1.00;;;;;;5105886;27;20902;-76
2024/02/16 03:26:21;;;;;;;20.33;18.23;;;10.00;1.00;;;;;;5107229;27;20508;-75
2024/02/16 03:28:49;;;;;;;20.47;18.47;;;10.00;1.00;;;;;;5109251;27;21298;-76
2024/02/16 03:31:18;;;;;;;20.60;17.87;;;10.00;1.00;;;;;;5105463;27;20523;-74
2024/02/16 03:33:45;;;;;;;18.70;16.80;;;10.00;1.00;;;;;;5108722;27;20540;-75
2024/02/16 03:36:14;;;;;;;19.63;17.63;;;10.00;1.00;;;;;;5101639;27;20454;-75
2024/02/16 03:38:43;;;;;;;19.53;17.50;;;10.00;1.00;;;;;;5107627;27;20477;-74
2024/02/16 03:41:16;;;;;;;18.73;16.73;;;10.00;1.00;;;;;;5105430;27;20959;-75
2024/02/16 03:43:43;;;;;;;18.10;16.27;;;10.00;1.00;;;;;;5110842;27;20468;-75
2024/02/16 03:46:10;;;;;;;19.00;16.97;;;9.90;1.00;;;;;;5107348;27;21057;-76
2024/02/16 03:48:40;;;;;;;21.10;18.57;;;9.90;1.00;;;;;;5111055;27;20482;-75
2024/02/16 03:51:07;;;;;;;18.77;17.03;;;9.80;1.00;;;;;;5107989;27;20449;-74
2024/02/16 03:53:35;;;;;;;20.53;18.50;;;9.80;1.00;;;;;;5109701;27;21421;-74
2024/02/16 03:56:02;;;;;;;19.53;17.47;;;9.80;1.00;;;;;;5107942;27;20469;-74
2024/02/16 03:58:28;;;;;;;18.90;16.90;;;9.80;1.00;;;;;;5109718;27;20480;-74
2024/02/16 04:00:55;;;;;;;18.07;16.27;;;9.80;1.00;;;;;;5109084;27;20466;-75
2024/02/16 04:03:22;;;;;;;18.87;16.10;;;9.80;1.00;;;;;;5108642;27;20470;-74
2024/02/16 04:05:52;;;;;;;19.83;17.53;;;9.80;1.00;;;;;;5109632;27;21215;-75
2024/02/16 04:08:19;;;;;;;17.77;15.97;;;9.80;1.00;;;;;;5105742;27;20462;-74
2024/02/16 04:10:47;;;;;;;18.47;16.67;;;9.80;1.00;;;;;;5103683;27;20462;-77
2024/02/16 04:13:14;;;;;;;18.37;16.57;;;9.80;1.00;;;;;;5108516;27;20541;-76
2024/02/16 04:15:41;;;;;;;19.90;17.90;;;9.80;1.00;;;;;;5107795;27;20458;-78
2024/02/16 04:18:09;;;;;;;20.40;18.30;;;9.70;1.00;;;;;;5107361;27;20470;-76
2024/02/16 04:20:41;;;;;;;19.50;17.50;;;9.60;1.00;;;;;;5105474;27;20524;-76
2024/02/16 04:23:09;;;;;;;19.03;16.67;;;9.60;1.00;;;;;;5110806;27;20458;-75
2024/02/16 04:25:37;;;;;;;18.97;17.03;;;9.70;1.00;;;;;;5106785;27;20541;-75
2024/02/16 04:28:04;;;;;;;17.77;15.80;;;9.70;1.00;;;;;;5106408;27;20473;-75
2024/02/16 04:30:31;;;;;;;18.47;16.33;;;9.80;1.00;;;;;;5110010;27;20453;-75
2024/02/16 04:32:58;;;;;;;17.40;15.70;;;9.80;1.00;;;;;;5101567;27;20463;-75
2024/02/16 04:35:25;;;;;;;18.90;16.33;;;9.80;1.00;;;;;;5110567;27;20585;-76
2024/02/16 04:37:52;;;;;;;20.20;16.37;;;9.80;1.00;;;;;;5105615;27;20482;-75
2024/02/16 04:40:20;;;;;;;18.13;15.40;;;9.80;1.00;;;;;;5104236;27;20445;-76
2024/02/16 04:42:47;;;;;;;17.67;15.87;;;9.70;1.00;;;;;;5105753;27;20479;-77
2024/02/16 04:45:14;;;;;;;17.80;16.00;;;9.70;1.00;;;;;;5108989;27;21166;-76
2024/02/16 04:47:41;;;;;;;18.30;14.40;;;9.60;1.00;;;;;;5108740;27;20470;-76
2024/02/16 04:50:10;;;;;;;18.77;16.10;;;9.60;1.00;;;;;;5104783;27;20826;-76
2024/02/16 04:52:37;;;;;;;18.87;17.00;;;9.70;1.00;;;;;;5096378;27;20461;-75
2024/02/16 04:55:06;;;;;;;18.77;16.50;;;9.70;1.00;;;;;;5105135;27;20454;-76
2024/02/16 04:57:35;;;;;;;19.37;17.30;;;9.70;1.00;;;;;;5105224;27;20854;-76
2024/02/16 05:00:02;;;;;;;17.43;15.63;;;9.70;1.00;;;;;;5106904;27;20449;-77
2024/02/16 05:02:29;;;;;;;17.30;15.63;;;9.70;1.00;;;;;;5104516;27;20559;-75
2024/02/16 05:04:56;;;;;;;17.57;15.67;;;9.60;1.00;;;;;;5100465;27;20456;-75
2024/02/16 05:07:23;;;;;;;17.67;15.67;;;9.70;1.00;;;;;;5098199;27;20949;-74
2024/02/16 05:09:55;;;;;;;17.03;15.27;;;9.70;1.00;;;;;;5104303;27;20457;-76
2024/02/16 05:12:23;;;;;;;16.03;14.33;;;9.70;1.00;;;;;;5100612;27;20539;-76
2024/02/16 05:14:52;;;;;;;17.40;15.03;;;9.70;1.00;;;;;;5105179;27;20543;-74
2024/02/16 05:17:22;;;;;;;16.90;15.23;;;9.60;1.00;;;;;;5107624;27;20566;-76
2024/02/16 05:19:49;;;;;;;16.13;14.43;;;9.60;1.00;;;;;;5103270;27;20481;-74
2024/02/16 05:22:18;;;;;;;16.53;14.70;;;9.70;1.00;;;;;;5102269;27;20453;-74
2024/02/16 05:24:45;;;;;;;15.87;13.80;;;9.80;1.00;;;;;;5104992;27;20458;-76
2024/02/16 05:27:12;;;;;;;16.50;14.07;;;9.70;1.00;;;;;;5106568;27;20477;-73
2024/02/16 05:29:38;;;;;;;16.47;14.80;;;9.60;1.00;;;;;;5106009;27;20462;-76
2024/02/16 05:32:10;;;;;;;17.03;15.23;;;9.60;1.00;;;;;;5105248;27;20525;-73
2024/02/16 05:34:38;;;;;;;16.40;14.80;;;9.70;1.00;;;;;;5104265;27;20550;-77
2024/02/16 05:37:07;;;;;;;17.20;15.40;;;9.70;1.00;;;;;;5094880;27;20475;-74
2024/02/16 05:39:35;;;;;;;16.50;14.73;;;9.80;1.00;;;;;;5101695;27;20457;-75
2024/02/16 05:42:03;;;;;;;16.87;15.20;;;9.80;1.00;;;;;;5104898;27;20549;-75
2024/02/16 05:44:32;;;;;;;19.53;15.43;;;9.70;1.00;;;;;;5105170;27;20491;-73
2024/02/16 05:46:59;;;;;;;17.17;15.37;;;9.60;1.00;;;;;;5100818;27;21050;-74
2024/02/16 05:49:28;;;;;;;15.87;14.27;;;9.60;1.00;;;;;;5107493;27;20519;-75
2024/02/16 05:52:17;;;;;;;16.43;14.73;;;9.60;1.00;;;;;;5104923;27;20995;-75
2024/02/16 05:54:44;;;;;;;15.80;14.10;;;9.60;1.00;;;;;;5109107;27;20450;-75
2024/02/16 05:57:12;;;;;;;14.50;12.97;;;9.50;1.00;;;;;;5101436;27;20481;-75
2024/02/16 05:59:41;;;;;;;15.23;13.63;;;9.50;1.00;;;;;;5106813;27;20488;-75
2024/02/16 06:02:10;;;;;;;14.87;13.17;;;9.50;1.00;;;;;;5104134;27;21641;-76
2024/02/16 06:04:41;;;;;;;20.00;14.13;;;9.40;1.00;;;;;;5085229;27;20450;-77
2024/02/16 06:07:09;;;;;;;17.37;14.60;;;9.40;1.00;;;;;;5104169;27;21028;-75
2024/02/16 06:09:37;;;;;;;14.07;12.53;;;9.40;1.00;;;;;;5105333;27;20798;-75
2024/02/16 06:12:06;;;;;;;16.20;14.50;;;9.50;1.00;;;;;;5085061;27;20467;-75
2024/02/16 06:14:34;;;;;;;15.43;13.40;;;9.50;1.00;;;;;;5083292;28;20998;-76
2024/02/16 06:17:01;;;;;;;15.27;13.13;;;9.50;1.00;;;;;;5085265;28;20466;-77
2024/02/16 06:19:29;;;;;;;15.60;14.00;;;9.50;1.00;;;;;;5085285;28;20551;-76
2024/02/16 06:21:57;;;;;;;15.00;13.40;;;9.50;1.00;;;;;;5084329;28;20564;-75
2024/02/16 06:24:24;;;;;;;15.37;13.47;;;9.60;1.00;;;;;;5084057;28;20445;-77
2024/02/16 06:26:52;;;;;;;14.67;13.17;;;9.50;1.00;;;;;;5082670;27;20493;-77
2024/02/16 06:29:22;;;;;;;15.70;13.53;;;9.50;1.00;;;;;;5085999;28;21208;-75
2024/02/16 06:31:49;;;;;;;14.90;13.37;;;9.50;1.00;;;;;;5083440;28;20502;-77
2024/02/16 06:34:17;;;;;;;14.90;13.30;;;9.40;1.00;;;;;;5082005;28;20508;-76
2024/02/16 06:36:45;;;;;;;14.63;13.10;;;9.40;1.00;;;;;;5082522;28;21162;-76
2024/02/16 06:39:16;;;;;;;14.73;12.97;;;9.40;1.00;;;;;;5080854;28;20550;-74
2024/02/16 06:41:44;;;;;;;15.23;13.40;;;9.50;1.00;;;;;;5088093;28;20491;-76
2024/02/16 06:44:12;;;;;;;15.73;14.10;;;9.50;1.00;;;;;;5084951;28;21062;-76
2024/02/16 06:46:39;;;;;;;14.93;13.33;;;9.50;1.00;;;;;;5084779;28;20469;-76
2024/02/16 06:49:06;;;;;;;18.37;15.87;;;9.50;1.00;;;;;;5087267;28;21298;-76
2024/02/16 06:51:33;;;;;;;16.80;13.50;;;9.50;1.00;;;;;;5089199;28;20989;-76
2024/02/16 06:54:00;;;;;;;15.50;14.10;;;9.50;1.00;;;;;;5064897;27;20483;-77
2024/02/16 06:56:33;;;;;;;13.83;12.33;;;9.60;1.00;;;;;;5092271;28;20589;-78
2024/02/16 06:59:00;;;;;;;16.47;14.20;;;9.60;1.00;;;;;;5086892;28;20443;-74
2024/02/16 07:01:28;;;;;;;14.67;13.37;;;9.60;1.00;;;;;;5086161;28;20462;-73
2024/02/16 07:03:56;;;;;;;15.60;12.93;;;9.70;1.00;;;;;;5086348;28;20461;-75
2024/02/16 07:06:23;;;;;;;16.50;14.80;;;9.70;1.00;;;;;;5087465;28;20512;-76
2024/02/16 07:08:50;;;;;;;17.23;15.47;;;9.70;1.00;;;;;;5086085;28;20449;-76
2024/02/16 07:11:18;;;;;;;16.30;13.83;;;9.80;1.00;;;;;;5078882;28;20466;-74
2024/02/16 07:13:46;;;;;;;15.50;13.83;;;9.90;1.00;;;;;;5064595;28;20471;-74
2024/02/16 07:16:16;;;;;;;16.57;14.90;;;9.80;1.00;;;;;;5071287;28;21114;-77
2024/02/16 07:18:43;;;;;;;15.87;14.27;;;9.80;1.00;;;;;;5089382;28;20469;-76
2024/02/16 07:21:12;;;;;;;15.30;13.70;;;9.80;1.00;;;;;;5088296;28;20577;-78
2024/02/16 07:23:40;;;;;;;14.70;13.17;;;9.80;1.00;;;;;;5087958;28;20462;-76
2024/02/16 07:26:07;;;;;;;14.87;13.37;;;9.90;1.00;;;;;;5092039;28;20498;-78
2024/02/16 07:28:35;;;;;;;16.27;14.47;;;9.90;1.00;;;;;;5084908;27;20814;-75
2024/02/16 07:31:04;;;;;;;14.67;13.27;;;10.00;1.00;;;;;;5089486;28;20451;-75
2024/02/16 07:33:31;;;;;;;14.97;13.53;;;10.10;1.00;;;;;;5089104;28;20451;-77
2024/02/16 07:35:58;;;;;;;15.33;13.33;;;10.20;1.00;;;;;;5088282;28;20494;-76
2024/02/16 07:38:25;;;;;;;16.10;14.37;;;10.20;1.00;;;;;;5091433;28;20564;-74
2024/02/16 07:40:52;;;;;;;16.30;14.60;;;10.30;1.00;;;;;;5089015;28;20970;-76
2024/02/16 07:43:19;;;;;;;20.23;14.50;;;10.50;1.00;;;;;;5085220;28;20479;-76
2024/02/16 07:45:47;;;;;;;15.83;14.27;;;10.60;1.00;;;;;;5091657;27;20478;-76
2024/02/16 07:48:18;;;;;;;16.63;13.73;;;10.60;1.00;;;;;;5089935;28;20501;-76
2024/02/16 07:50:45;;;;;;;16.73;14.20;;;10.70;1.00;;;;;;5091590;28;20478;-75
2024/02/16 07:53:12;;;;;;;16.33;13.70;;;10.90;1.00;;;;;;5084967;28;20528;-74
2024/02/16 07:55:38;;;;;;;15.70;14.10;;;11.00;1.00;;;;;;5090202;27;20570;-74
2024/02/16 07:58:05;;;;;;;17.77;14.20;;;11.10;1.00;;;;;;5077119;28;20464;-73
2024/02/16 08:00:33;;;;;;;17.07;15.30;;;11.20;1.00;;;;;;5086313;28;20478;-72
2024/02/16 08:03:02;;;;;;;17.33;13.50;;;11.20;1.00;;;;;;5074853;28;20597;-75
2024/02/16 08:05:30;;;;;;;15.00;13.47;;;11.40;1.00;;;;;;5081169;28;20480;-76
2024/02/16 08:07:57;;;;;;;14.70;13.20;;;11.40;1.00;;;;;;5088006;28;20956;-73
2024/02/16 08:10:26;;;;;;;16.57;14.87;;;11.50;1.00;;;;;;5092687;27;20494;-75
2024/02/16 08:12:53;;;;;;;17.70;14.60;;;11.70;1.00;;;;;;5087560;27;20470;-73
2024/02/16 08:15:22;;;;;;;14.67;13.27;;;11.90;1.00;;;;;;5102856;27;20454;-75
2024/02/16 08:17:51;;;;;;;15.80;13.43;;;12.10;1.00;;;;;;5107232;27;20458;-75
2024/02/16 08:20:20;;;;;;;14.33;12.83;;;12.40;1.00;;;;;;5091330;27;21216;-75
2024/02/16 08:22:48;;;;;;;14.60;12.97;;;12.50;1.00;;;;;;5100728;27;21209;-76
2024/02/16 08:25:16;;;;;;;15.10;13.10;;;12.50;1.00;;;;;;5105891;27;21040;-75
2024/02/16 08:27:43;;;;;;;14.87;13.20;;;12.60;1.00;;;;;;5106593;27;20474;-75
2024/02/16 08:30:11;;;;;;;15.30;12.63;;;12.70;1.00;;;;;;5104655;27;20465;-75
2024/02/16 08:32:38;;;;;;;16.77;12.97;;;12.70;1.00;;;;;;5109340;27;20715;-78
2024/02/16 08:35:06;;;;;;;19.50;12.53;;;12.80;1.00;;;;;;5098320;27;20466;-74
2024/02/16 08:37:33;;;;;;;13.20;11.90;;;12.80;1.00;;;;;;5101237;27;20548;-75
2024/02/16 08:40:04;;;;;;;13.57;12.27;;;13.00;1.00;;;;;;5105502;27;20461;-73
2024/02/16 08:42:31;;;;;;;11.73;10.53;;;13.20;1.00;;;;;;5107195;27;20691;-75
2024/02/16 08:45:00;;;;;;;13.27;11.87;;;13.40;1.00;;;;;;5102201;27;20478;-75
2024/02/16 08:47:27;;;;;;;16.03;11.10;;;13.50;1.00;;;;;;5105655;27;20562;-76
2024/02/16 08:49:54;;;;;;;12.50;11.30;;;13.60;1.00;;;;;;5109001;27;20459;-76
2024/02/16 08:52:21;;;;;;;12.83;11.00;;;13.50;1.00;;;;;;5104788;27;20480;-76
2024/02/16 08:54:48;;;;;;;12.60;11.40;;;13.30;1.00;;;;;;5102927;27;20479;-76
2024/02/16 08:57:17;;;;;;;13.10;11.70;;;13.10;1.00;;;;;;5105985;27;20530;-76
2024/02/16 08:59:44;;;;;;;21.07;12.00;;;13.00;1.00;;;;;;5107780;27;20553;-76
2024/02/16 09:02:11;;;;;;;11.70;10.50;;;13.00;1.00;;;;;;5107479;27;20488;-76
2024/02/16 09:04:38;;;;;;;12.77;11.43;;;13.10;1.00;;;;;;5109243;27;20511;-77
2024/02/16 09:07:05;;;;;;;13.67;11.93;;;13.30;1.00;;;;;;5102504;27;20440;-75
2024/02/16 09:09:33;;;;;;;12.57;11.27;;;13.40;1.00;;;;;;5109048;27;21741;-78
2024/02/16 09:12:03;;;;;;;13.77;12.37;;;13.40;1.00;;;;;;5092085;27;20435;-78
2024/02/16 09:14:31;;;;;;;11.80;10.60;;;13.40;1.00;;;;;;5088388;28;20532;-77
2024/02/16 09:16:58;;;;;;;15.20;11.90;;;13.30;1.00;;;;;;5086663;28;21714;-79
2024/02/16 09:19:25;;;;;;;12.80;11.50;;;13.40;1.00;;;;;;5093742;28;20763;-77
2024/02/16 09:21:54;;;;;;;12.20;10.93;;;13.30;1.00;;;;;;5085309;28;20460;-79
2024/02/16 09:24:21;;;;;;;13.63;11.73;;;13.20;1.00;;;;;;5088553;28;20632;-78
2024/02/16 09:26:48;;;;;;;13.43;11.90;;;13.20;1.00;;;;;;5086902;28;20467;-79
2024/02/16 09:29:15;;;;;;;12.93;11.63;;;13.30;1.00;;;;;;5087341;28;20479;-76
2024/02/16 09:31:44;;;;;;;13.07;11.87;;;13.50;1.00;;;;;;5085783;28;20456;-76
2024/02/16 09:34:12;;;;;;;12.37;10.73;;;13.60;1.00;;;;;;5081729;28;20535;-79
2024/02/16 09:36:38;;;;;;;14.00;11.60;;;13.70;1.00;;;;;;5091307;28;20462;-77
2024/02/16 09:39:06;;;;;;;12.97;11.60;;;13.90;1.00;;;;;;5092052;28;20464;-78
2024/02/16 09:41:37;;;;;;;12.20;11.07;;;14.20;1.00;;;;;;5094328;28;20427;-80
2024/02/16 09:44:06;;;;;;;11.90;10.70;;;14.40;1.00;;;;;;5088965;28;20444;-80
2024/02/16 09:46:34;;;;;;;12.23;11.03;;;14.80;1.00;;;;;;5090116;28;20427;-78
2024/02/16 09:49:04;;;;;;;12.40;11.10;;;15.30;1.00;;;;;;5090744;28;22501;-77
2024/02/16 09:51:31;;;;;;;12.43;10.23;;;16.00;1.00;;;;;;5089184;28;20425;-77
2024/02/16 09:54:00;;;;;;;12.80;10.97;;;16.20;1.00;;;;;;5090943;28;20479;-80
2024/02/16 09:56:27;;;;;;;11.80;9.73;;;16.00;1.00;;;;;;5095247;28;20469;-79
2024/02/16 09:58:56;;;;;;;11.33;9.40;;;15.60;1.00;;;;;;5084604;28;20462;-74
2024/02/16 10:01:24;;;;;;;9.73;8.73;;;15.30;1.00;;;;;;5086683;28;20596;-74
2024/02/16 10:03:51;;;;;;;11.33;10.03;;;14.90;1.00;;;;;;5084770;28;20480;-76
2024/02/16 10:06:22;;;;;;;9.67;8.77;;;14.80;1.00;;;;;;5078151;28;20962;-75
2024/02/16 10:08:50;;;;;;;9.03;8.23;;;14.80;1.00;;;;;;5083087;28;20474;-79
2024/02/16 10:11:18;;;;;;;9.97;9.07;;;14.80;1.00;;;;;;5097189;27;20547;-77
2024/02/16 10:13:56;;;;;;;10.10;9.20;;;14.80;1.00;;;;;;5101178;27;20519;-75
2024/02/16 10:16:23;;;;;;;10.03;9.13;;;14.70;1.00;;;;;;5102442;27;20594;-75
2024/02/16 10:18:50;;;;;;;8.80;7.90;;;14.80;1.00;;;;;;5103284;27;20491;-77
2024/02/16 10:21:27;;;;;;;9.90;8.90;;;15.00;1.00;;;;;;5104238;27;21785;-75
2024/02/16 10:24:02;;;;;;;9.13;8.23;;;15.10;1.00;;;;;;5106869;27;20473;-76
2024/02/16 10:26:29;;;;;;;9.43;8.47;;;15.10;1.00;;;;;;5103571;27;20535;-76
2024/02/16 10:28:58;;;;;;;10.40;9.20;;;15.10;1.00;;;;;;5108302;27;20473;-75
2024/02/16 10:31:29;;;;;;;10.57;9.47;;;15.10;1.00;;;;;;5104291;27;21002;-74
2024/02/16 10:33:59;;;;;;;10.20;9.20;;;15.00;1.00;;;;;;5101702;27;20480;-74
2024/02/16 10:36:29;;;;;;;9.57;8.60;;;15.10;1.00;;;;;;5105387;27;20468;-77
2024/02/16 10:38:59;;;;;;;10.07;9.17;;;15.20;1.00;;;;;;5104133;27;20466;-75
2024/02/16 10:41:30;;;;;;;8.57;7.63;;;15.20;1.00;;;;;;5105283;27;20461;-75
2024/02/16 10:43:57;;;;;;;12.63;8.00;;;15.20;1.00;;;;;;5102450;27;20531;-77
2024/02/16 10:46:25;;;;;;;8.57;7.77;;;15.20;1.00;;;;;;5105153;27;20453;-75
2024/02/16 10:48:52;;;;;;;8.47;7.77;;;15.30;1.00;;;;;;5101157;27;20822;-77
2024/02/16 10:51:24;;;;;;;8.23;7.40;;;15.20;1.00;;;;;;5104506;27;20448;-78
2024/02/16 10:53:54;;;;;;;8.00;7.30;;;15.10;1.00;;;;;;5105446;27;20500;-74
2024/02/16 10:56:29;;;;;;;9.40;8.07;;;15.20;1.00;;;;;;5107951;27;20553;-79
2024/02/16 10:58:56;;;;;;;9.47;8.50;;;15.40;1.00;;;;;;5106902;27;20540;-78
2024/02/16 11:01:24;;;;;;;9.13;8.30;;;15.40;1.00;;;;;;5106891;27;21226;-78
2024/02/16 11:04:02;;;;;;;8.70;7.80;;;15.30;1.00;;;;;;5106192;27;20469;-77
2024/02/16 11:06:30;;;;;;;8.40;7.50;;;15.20;1.00;;;;;;5107200;27;20479;-78
2024/02/16 11:09:09;;;;;;;9.40;8.50;;;15.20;1.00;;;;;;5088572;28;20445;-78
2024/02/16 11:11:37;;;;;;;10.43;9.23;;;15.20;1.00;;;;;;5109055;27;22136;-77
2024/02/16 11:14:13;;;;;;;9.73;8.80;;;15.30;1.00;;;;;;5102404;27;20476;-77
2024/02/16 11:16:45;;;;;;;11.17;10.03;;;15.20;1.00;;;;;;5110374;27;20564;-75
2024/02/16 11:19:16;;;;;;;13.13;8.90;;;15.40;1.00;;;;;;5102787;27;20631;-75
2024/02/16 11:21:57;;;;;;;12.40;7.90;;;15.60;1.00;;;;;;5106859;27;20453;-77
2024/02/16 11:24:31;;;;;;;11.10;8.50;;;15.70;1.00;;;;;;5103532;27;20458;-80
2024/02/16 11:26:59;;;;;;;9.63;8.40;;;15.90;1.00;;;;;;5104057;27;20461;-77
2024/02/16 11:29:27;;;;;;;9.33;7.90;;;16.00;1.00;;;;;;5101998;27;20465;-77
2024/02/16 11:31:56;;;;;;;9.60;8.47;;;16.20;1.00;;;;;;5106795;27;20478;-76
2024/02/16 11:34:23;;;;;;;7.93;7.23;;;16.20;1.00;;;;;;5106966;27;20434;-77
2024/02/16 11:36:53;;;;;;;9.50;8.57;;;16.20;1.00;;;;;;5102606;27;20511;-75
2024/02/16 11:39:21;;;;;;;8.83;8.13;;;16.20;1.00;;;;;;5107300;27;20554;-77
2024/02/16 11:42:01;;;;;;;7.13;6.53;;;16.30;1.00;;;;;;5104494;27;20890;-77
2024/02/16 11:44:29;;;;;;;8.63;7.80;;;16.60;1.00;;;;;;5090509;27;20499;-76
2024/02/16 11:46:56;;;;;;;8.07;6.90;;;17.00;1.00;;;;;;5105181;27;20537;-77
2024/02/16 11:49:23;;;;;;;8.53;7.77;;;17.50;1.00;;;;;;5106820;27;20459;-75
2024/02/16 11:51:50;;;;;;;6.87;6.27;;;17.90;1.00;;;;;;5108575;27;20419;-76
2024/02/16 11:54:18;;;;;;;6.90;6.30;;;18.40;1.00;;;;;;5104470;27;20527;-77
2024/02/16 11:56:46;;;;;;;6.87;6.20;;;19.20;1.00;;;;;;5102115;27;20455;-76
2024/02/16 11:59:17;;;;;;;6.60;6.10;;;20.20;1.00;;;;;;5106911;27;20568;-77
2024/02/16 12:01:54;;;;;;;6.17;5.50;;;21.00;1.00;;;;;;5106508;27;20459;-75
2024/02/16 12:04:24;;;;;;;7.73;5.60;;;21.50;1.00;;;;;;5108448;27;20464;-76
2024/02/16 12:06:53;;;;;;;11.63;5.33;;;21.90;1.00;;;;;;5104138;27;20550;-74
2024/02/16 12:09:21;;;;;;;5.53;4.40;;;22.20;1.00;;;;;;5107559;27;20481;-75
2024/02/16 12:11:50;;;;;;;5.30;4.27;;;22.70;1.00;;;;;;5102798;27;20536;-76
2024/02/16 12:14:19;;;;;;;11.07;5.03;;;23.30;1.00;;;;;;5106309;27;20541;-76
2024/02/16 12:16:49;;;;;;;10.60;5.00;;;23.70;1.00;;;;;;5105977;27;20851;-76
2024/02/16 12:19:16;;;;;;;5.17;4.20;;;23.90;1.00;;;;;;5106622;27;20847;-78
2024/02/16 12:21:43;;;;;;;7.13;4.20;;;23.10;1.00;;;;;;5106152;27;21020;-79
2024/02/16 12:24:10;;;;;;;7.90;4.70;;;22.30;1.00;;;;;;5107867;27;20613;-76
2024/02/16 12:26:38;;;;;;;7.00;4.63;;;21.40;1.00;;;;;;5109810;27;20483;-77
2024/02/16 12:29:08;;;;;;;5.80;4.67;;;20.60;1.00;;;;;;5106907;27;20645;-75
2024/02/16 12:31:38;;;;;;;6.80;4.50;;;19.90;1.00;;;;;;5105344;27;20900;-76
2024/02/16 12:34:07;;;;;;;11.10;5.07;;;19.60;1.00;;;;;;5104878;27;21008;-77
2024/02/16 12:36:34;;;;;;;7.83;4.43;;;19.80;1.00;;;;;;5105467;27;20477;-76
2024/02/16 12:39:03;;;;;;;7.43;4.40;;;20.60;1.00;;;;;;5107853;27;20455;-76
2024/02/16 12:41:30;;;;;;;6.87;5.20;;;22.10;1.00;;;;;;5106318;27;20467;-76
2024/02/16 12:43:57;;;;;;;4.80;4.40;;;23.60;1.00;;;;;;5104892;27;20836;-76
2024/02/16 12:46:24;;;;;;;4.33;3.93;;;25.80;1.00;;;;;;5105462;27;20594;-79
2024/02/16 12:48:53;;;;;;;5.17;4.67;;;26.50;1.00;;;;;;5109358;27;20655;-78
2024/02/16 12:51:20;;;;;;;4.47;4.07;;;26.00;1.00;;;;;;5108342;27;20447;-79